Time;durP1;ratioP1;P1;durP2;ratioP2;P2;SDS_P1;SDS_P2;PMS_P1;PMS_P2;Temp;Humidity;BMP_temperature;BMP_pressure;BME280_temperature;BME280_humidity;BME280_pressure;Samples;Min_cycle;Max_cycle;Signal;HPM_P1;HPM_P2
2022/08/01 00:00:38;;;;;;;7.15;4.10;;;24.50;55.80;;;;;;5032856;28;20053;-75
2022/08/01 00:03:04;;;;;;;6.10;3.47;;;24.50;55.70;;;;;;5031634;28;20116;-75
2022/08/01 00:05:30;;;;;;;8.25;3.72;;;24.50;55.80;;;;;;5033020;28;20105;-76
2022/08/01 00:07:56;;;;;;;5.60;3.45;;;24.50;55.90;;;;;;5032306;28;20440;-76
2022/08/01 00:10:24;;;;;;;6.35;3.45;;;24.40;55.80;;;;;;5031563;28;20051;-75
2022/08/01 00:12:50;;;;;;;6.30;3.40;;;24.40;55.80;;;;;;5032039;28;20025;-76
2022/08/01 00:15:17;;;;;;;7.15;3.53;;;24.40;55.90;;;;;;5025837;28;20040;-75
2022/08/01 00:17:44;;;;;;;5.50;3.13;;;24.40;55.90;;;;;;5030701;28;20406;-75
2022/08/01 00:20:12;;;;;;;7.90;3.78;;;24.40;56.00;;;;;;5024136;28;20017;-74
2022/08/01 00:22:38;;;;;;;4.93;3.00;;;24.40;56.00;;;;;;4994924;28;20386;-74
2022/08/01 00:25:05;;;;;;;7.43;3.28;;;24.40;56.40;;;;;;5011082;28;20030;-74
2022/08/01 00:27:31;;;;;;;7.18;3.20;;;24.40;56.30;;;;;;5031820;28;20048;-74
2022/08/01 00:29:57;;;;;;;8.38;3.22;;;24.50;56.60;;;;;;5033113;28;20036;-75
2022/08/01 00:32:24;;;;;;;8.35;3.15;;;24.50;56.90;;;;;;5032276;28;20168;-74
2022/08/01 00:34:50;;;;;;;9.45;3.30;;;24.40;56.40;;;;;;5032006;28;20398;-75
2022/08/01 00:37:15;;;;;;;5.97;3.13;;;24.40;56.30;;;;;;5031093;28;20030;-75
2022/08/01 00:39:41;;;;;;;4.45;3.20;;;24.40;56.70;;;;;;5029962;28;20025;-74
2022/08/01 00:42:09;;;;;;;7.43;2.88;;;24.40;56.70;;;;;;5031832;28;20517;-75
2022/08/01 00:44:35;;;;;;;7.00;3.13;;;24.40;56.90;;;;;;5032059;28;20521;-74
2022/08/01 00:47:02;;;;;;;6.50;2.88;;;24.40;57.00;;;;;;5031229;28;20025;-74
2022/08/01 00:49:28;;;;;;;6.68;2.88;;;24.40;57.00;;;;;;5031629;28;20029;-74
2022/08/01 00:51:55;;;;;;;6.55;3.35;;;24.40;57.20;;;;;;5029681;28;20029;-74
2022/08/01 00:54:22;;;;;;;6.57;3.15;;;24.40;57.20;;;;;;5031860;28;20029;-74
2022/08/01 00:56:48;;;;;;;5.05;2.85;;;24.40;57.30;;;;;;5030831;28;20059;-75
2022/08/01 00:59:16;;;;;;;6.32;3.25;;;24.30;58.00;;;;;;5032436;28;20033;-74
2022/08/01 01:01:42;;;;;;;5.00;2.90;;;24.40;57.60;;;;;;5030358;28;20091;-74
2022/08/01 01:04:08;;;;;;;6.45;2.95;;;24.30;57.70;;;;;;5030296;28;20025;-74
2022/08/01 01:06:41;;;;;;;5.28;2.80;;;24.40;58.20;;;;;;5030424;28;20449;-74
2022/08/01 01:09:14;;;;;;;7.38;2.90;;;24.30;57.90;;;;;;5031359;28;20428;-74
2022/08/01 01:12:18;;;;;;;4.55;2.70;;;24.30;58.70;;;;;;5031330;28;20039;-74
2022/08/01 01:15:10;;;;;;;5.28;2.83;;;24.30;58.70;;;;;;5031242;28;20025;-74
2022/08/01 01:17:48;;;;;;;3.70;2.65;;;24.30;59.00;;;;;;5030137;28;20124;-74
2022/08/01 01:20:16;;;;;;;6.05;2.80;;;24.30;59.00;;;;;;5030868;28;20033;-74
2022/08/01 01:23:03;;;;;;;5.13;2.45;;;24.30;59.10;;;;;;5030863;28;20029;-74
2022/08/01 01:25:45;;;;;;;4.15;2.40;;;24.30;59.20;;;;;;5025203;28;20052;-74
2022/08/01 01:28:32;;;;;;;6.45;2.55;;;24.30;59.70;;;;;;5029916;28;20044;-74
2022/08/01 01:30:59;;;;;;;6.53;3.08;;;24.30;59.50;;;;;;5031692;28;20108;-74
2022/08/01 01:33:31;;;;;;;4.55;2.67;;;24.30;59.50;;;;;;5030904;28;20485;-74
2022/08/01 01:36:03;;;;;;;6.15;2.60;;;24.30;59.60;;;;;;5029802;28;20021;-74
2022/08/01 01:38:34;;;;;;;4.13;2.65;;;24.30;59.50;;;;;;5029420;28;20052;-74
2022/08/01 01:41:02;;;;;;;4.55;2.58;;;24.30;59.50;;;;;;5029558;28;20025;-74
2022/08/01 01:43:29;;;;;;;6.05;2.83;;;24.30;59.60;;;;;;5039872;28;20104;-74
2022/08/01 01:45:56;;;;;;;3.97;2.70;;;24.30;60.30;;;;;;5030406;28;20025;-74
2022/08/01 01:48:23;;;;;;;4.80;2.97;;;24.30;60.30;;;;;;5030719;28;20051;-74
2022/08/01 01:50:51;;;;;;;5.65;2.47;;;24.30;60.10;;;;;;5030873;28;20108;-74
2022/08/01 01:53:19;;;;;;;7.07;3.05;;;24.30;59.70;;;;;;5030666;28;20101;-81
2022/08/01 01:55:48;;;;;;;4.85;2.58;;;24.30;59.70;;;;;;5029539;28;20520;-81
2022/08/01 01:58:15;;;;;;;4.47;2.58;;;24.30;60.00;;;;;;5030661;28;20445;-81
2022/08/01 02:00:44;;;;;;;5.15;2.58;;;24.30;59.60;;;;;;5029218;28;20029;-82
2022/08/01 02:03:11;;;;;;;4.78;2.75;;;24.30;59.50;;;;;;5022341;28;20489;-82
2022/08/01 02:05:39;;;;;;;7.03;2.92;;;24.40;59.50;;;;;;5029234;28;20033;-81
2022/08/01 02:08:07;;;;;;;5.25;2.88;;;24.40;59.40;;;;;;5029302;28;20093;-81
2022/08/01 02:10:34;;;;;;;5.53;2.60;;;24.40;59.20;;;;;;5013319;28;20076;-82
2022/08/01 02:13:03;;;;;;;5.60;2.75;;;24.50;59.60;;;;;;5029254;28;20029;-82
2022/08/01 02:15:38;;;;;;;6.47;2.80;;;24.50;59.40;;;;;;5029750;28;20036;-81
2022/08/01 02:18:05;;;;;;;9.73;3.05;;;24.50;59.50;;;;;;5035184;28;20112;-82
2022/08/01 02:20:35;;;;;;;5.30;2.90;;;24.50;59.60;;;;;;5029394;28;20112;-82
2022/08/01 02:23:07;;;;;;;7.25;2.85;;;24.50;59.70;;;;;;5033539;28;20029;-82
2022/08/01 02:25:42;;;;;;;9.65;2.80;;;24.50;59.70;;;;;;5019825;28;20492;-82
2022/08/01 02:28:13;;;;;;;6.80;2.55;;;24.50;59.80;;;;;;5034171;28;20029;-81
2022/08/01 02:30:43;;;;;;;4.78;2.40;;;24.50;59.20;;;;;;5033557;28;20017;-82
2022/08/01 02:33:21;;;;;;;5.38;2.78;;;24.50;59.50;;;;;;5036931;28;20060;-82
2022/08/01 02:35:51;;;;;;;5.65;2.67;;;24.50;59.40;;;;;;5034070;28;20045;-82
2022/08/01 02:38:20;;;;;;;5.53;2.55;;;24.50;59.30;;;;;;5032899;28;20025;-82
2022/08/01 02:40:49;;;;;;;4.88;2.60;;;24.50;59.50;;;;;;5022860;28;20381;-82
2022/08/01 02:43:18;;;;;;;5.30;2.60;;;24.50;59.60;;;;;;5034099;28;20017;-82
2022/08/01 02:45:51;;;;;;;4.47;2.50;;;24.50;59.80;;;;;;5033101;28;20120;-82
2022/08/01 02:48:18;;;;;;;5.22;2.70;;;24.50;59.70;;;;;;5039716;28;20133;-82
2022/08/01 02:50:47;;;;;;;5.57;2.67;;;24.50;59.70;;;;;;5033984;28;20055;-82
2022/08/01 02:53:16;;;;;;;4.03;2.53;;;24.50;59.90;;;;;;5013501;28;20124;-82
2022/08/01 02:55:44;;;;;;;4.68;2.53;;;24.50;60.00;;;;;;5016697;28;20390;-84
2022/08/01 02:58:13;;;;;;;4.45;2.72;;;24.50;59.80;;;;;;5013713;28;20064;-84
2022/08/01 03:00:42;;;;;;;5.35;2.70;;;24.50;59.90;;;;;;5030678;28;20061;-82
2022/08/01 03:03:10;;;;;;;5.70;2.63;;;24.50;60.00;;;;;;5031930;28;20049;-82
2022/08/01 03:05:39;;;;;;;4.20;2.60;;;24.50;60.00;;;;;;5015635;28;20021;-82
2022/08/01 03:08:08;;;;;;;7.97;2.70;;;24.50;60.10;;;;;;5031506;28;20505;-81
2022/08/01 03:10:36;;;;;;;4.90;3.00;;;24.50;60.10;;;;;;5033161;28;20021;-82
2022/08/01 03:13:04;;;;;;;5.57;2.60;;;24.50;60.20;;;;;;5032622;28;20056;-81
2022/08/01 03:15:34;;;;;;;8.15;2.92;;;24.50;60.20;;;;;;5031262;28;20382;-81
2022/08/01 03:18:02;;;;;;;7.57;2.50;;;24.50;60.20;;;;;;5016343;28;20026;-82
2022/08/01 03:20:30;;;;;;;6.47;2.72;;;24.50;60.10;;;;;;5028116;28;20024;-82
2022/08/01 03:22:59;;;;;;;4.45;2.40;;;24.50;60.10;;;;;;5032264;28;20057;-82
2022/08/01 03:25:27;;;;;;;4.05;2.50;;;24.50;60.10;;;;;;5032870;28;20446;-82
2022/08/01 03:28:00;;;;;;;4.05;2.50;;;24.50;60.30;;;;;;5032669;28;20033;-82
2022/08/01 03:30:27;;;;;;;4.57;2.38;;;24.50;60.20;;;;;;5031545;28;21580;-82
2022/08/01 03:32:53;;;;;;;5.82;2.83;;;24.50;60.10;;;;;;5038041;28;20094;-82
2022/08/01 03:35:21;;;;;;;4.63;2.30;;;24.50;60.40;;;;;;5014875;28;20026;-82
2022/08/01 03:37:51;;;;;;;4.35;2.55;;;24.50;60.10;;;;;;5033010;28;20639;-84
2022/08/01 03:40:23;;;;;;;8.73;2.70;;;24.50;60.20;;;;;;5001978;28;20421;-83
2022/08/01 03:42:54;;;;;;;5.22;2.65;;;24.50;60.10;;;;;;5037524;28;20542;-82
2022/08/01 03:45:23;;;;;;;8.40;2.95;;;24.50;60.30;;;;;;5032743;28;20025;-82
2022/08/01 03:47:53;;;;;;;4.93;2.63;;;24.50;60.10;;;;;;5021924;28;20038;-83
2022/08/01 03:50:20;;;;;;;;;;;24.50;60.30;;;;;;5032565;28;20053;-83
2022/08/01 03:52:47;;;;;;;5.82;2.67;;;24.50;60.30;;;;;;5032693;28;20309;-82
2022/08/01 03:55:16;;;;;;;4.38;2.38;;;24.60;60.30;;;;;;5031514;28;20381;-83
2022/08/01 03:57:44;;;;;;;3.78;2.53;;;24.50;60.10;;;;;;5032425;28;20014;-82
2022/08/01 04:00:12;;;;;;;;;;;24.60;60.00;;;;;;5032595;28;20027;-82
2022/08/01 04:02:39;;;;;;;4.60;2.63;;;24.50;60.30;;;;;;5031587;28;19909;-83
2022/08/01 04:05:05;;;;;;;4.65;2.60;;;24.50;61.00;;;;;;5014907;28;20025;-83
2022/08/01 04:07:36;;;;;;;3.97;2.50;;;24.60;60.30;;;;;;5032308;28;20125;-82
2022/08/01 04:10:04;;;;;;;4.40;2.30;;;24.60;60.50;;;;;;5026039;28;20144;-83
2022/08/01 04:12:29;;;;;;;5.53;2.38;;;24.60;60.30;;;;;;5021644;28;20040;-83
2022/08/01 04:14:55;;;;;;;4.47;2.85;;;24.60;60.30;;;;;;5031551;28;20021;-83
2022/08/01 04:17:21;;;;;;;6.05;2.75;;;24.50;59.90;;;;;;5014484;28;20056;-82
2022/08/01 04:19:47;;;;;;;4.53;2.33;;;24.50;60.30;;;;;;5031338;28;20025;-82
2022/08/01 04:22:14;;;;;;;5.85;2.65;;;24.50;60.30;;;;;;5031983;28;20032;-83
2022/08/01 04:24:48;;;;;;;5.55;2.42;;;24.50;60.40;;;;;;5032363;28;20028;-83
2022/08/01 04:27:21;;;;;;;3.30;2.35;;;24.50;60.30;;;;;;5023558;28;20029;-82
2022/08/01 04:29:50;;;;;;;5.32;2.50;;;24.50;60.60;;;;;;5031547;28;20716;-83
2022/08/01 04:32:17;;;;;;;7.57;2.70;;;24.50;60.30;;;;;;5031210;28;20057;-83
2022/08/01 04:34:46;;;;;;;6.68;2.47;;;24.50;60.60;;;;;;5033189;28;20036;-84
2022/08/01 04:37:16;;;;;;;5.03;2.42;;;24.50;60.70;;;;;;5006654;28;20025;-85
2022/08/01 04:39:43;;;;;;;3.60;2.38;;;24.50;60.70;;;;;;5030206;28;20033;-83
2022/08/01 04:42:10;;;;;;;5.18;2.78;;;24.50;60.50;;;;;;5019662;28;20026;-83
2022/08/01 04:44:37;;;;;;;5.10;2.80;;;24.50;60.80;;;;;;5031092;28;20083;-84
2022/08/01 04:47:05;;;;;;;5.47;2.55;;;24.50;60.60;;;;;;5030437;28;20018;-83
2022/08/01 04:49:35;;;;;;;5.43;2.55;;;24.50;60.60;;;;;;5033608;28;20104;-83
2022/08/01 04:52:01;;;;;;;4.85;2.60;;;24.50;60.80;;;;;;5030685;28;20025;-82
2022/08/01 04:54:27;;;;;;;4.35;2.70;;;24.50;60.80;;;;;;5030465;28;20041;-83
2022/08/01 04:56:59;;;;;;;4.88;2.67;;;24.50;60.70;;;;;;5031537;28;20433;-83
2022/08/01 04:59:40;;;;;;;4.20;2.63;;;24.50;60.70;;;;;;5029984;28;20029;-82
2022/08/01 05:02:11;;;;;;;3.88;2.88;;;24.50;60.80;;;;;;5033125;28;20021;-82
2022/08/01 05:04:39;;;;;;;5.72;3.00;;;24.50;60.90;;;;;;5019476;28;20090;-83
2022/08/01 05:07:06;;;;;;;5.68;2.97;;;24.50;61.00;;;;;;5029616;28;20454;-82
2022/08/01 05:09:32;;;;;;;4.90;2.92;;;24.50;60.90;;;;;;5031464;28;20148;-83
2022/08/01 05:12:00;;;;;;;4.95;2.83;;;24.50;60.70;;;;;;5037479;28;20108;-82
2022/08/01 05:14:26;;;;;;;5.65;2.85;;;24.50;61.10;;;;;;5031010;28;20021;-83
2022/08/01 05:16:52;;;;;;;5.47;2.72;;;24.50;61.20;;;;;;5035095;28;20024;-81
2022/08/01 05:19:18;;;;;;;5.03;2.70;;;24.50;61.20;;;;;;5031024;28;20128;-81
2022/08/01 05:21:44;;;;;;;4.82;2.97;;;24.50;61.20;;;;;;5029651;28;20045;-81
2022/08/01 05:24:10;;;;;;;4.10;3.03;;;24.50;61.10;;;;;;5031446;28;20096;-81
2022/08/01 05:26:36;;;;;;;5.35;3.13;;;24.50;61.60;;;;;;5035564;28;20079;-80
2022/08/01 05:29:02;;;;;;;4.07;2.38;;;24.50;61.50;;;;;;4995909;28;20030;-80
2022/08/01 05:31:28;;;;;;;4.85;2.90;;;24.50;61.00;;;;;;5021776;28;20065;-81
2022/08/01 05:33:54;;;;;;;5.65;2.90;;;24.50;61.10;;;;;;5029345;28;20083;-82
2022/08/01 05:36:19;;;;;;;6.30;2.83;;;24.60;61.10;;;;;;5026829;28;20029;-82
2022/08/01 05:38:45;;;;;;;7.75;2.97;;;24.60;61.00;;;;;;5030557;28;20522;-82
2022/08/01 05:41:11;;;;;;;7.22;2.78;;;24.60;61.30;;;;;;5030109;28;20095;-82
2022/08/01 05:43:37;;;;;;;6.32;3.47;;;24.50;61.30;;;;;;5030771;28;20096;-82
2022/08/01 05:46:03;;;;;;;3.97;2.58;;;24.60;61.30;;;;;;5035639;28;20113;-82
2022/08/01 05:48:30;;;;;;;10.57;2.65;;;24.60;61.00;;;;;;5011627;28;20064;-82
2022/08/01 05:50:55;;;;;;;5.78;2.60;;;24.50;60.80;;;;;;5029631;28;20025;-82
2022/08/01 05:53:21;;;;;;;5.18;2.90;;;24.60;61.20;;;;;;5019417;28;20026;-82
2022/08/01 05:55:47;;;;;;;4.72;3.20;;;24.50;61.10;;;;;;5013022;28;20041;-82
2022/08/01 05:58:13;;;;;;;4.82;2.78;;;24.50;61.60;;;;;;5030364;28;20022;-83
2022/08/01 06:00:39;;;;;;;5.60;3.00;;;24.50;61.30;;;;;;5029128;28;20077;-85
2022/08/01 06:03:05;;;;;;;6.95;2.90;;;24.50;61.10;;;;;;5029991;28;20618;-84
2022/08/01 06:05:31;;;;;;;5.78;3.03;;;24.50;61.20;;;;;;5029620;28;20030;-85
2022/08/01 06:07:57;;;;;;;5.75;2.83;;;24.50;61.50;;;;;;5029178;28;20036;-84
2022/08/01 06:10:23;;;;;;;4.95;2.83;;;24.50;61.60;;;;;;5012631;28;20026;-85
2022/08/01 06:12:49;;;;;;;3.67;2.55;;;24.50;61.50;;;;;;5029510;28;20033;-84
2022/08/01 06:15:15;;;;;;;3.40;2.55;;;24.50;61.60;;;;;;5011384;28;20022;-85
2022/08/01 06:17:41;;;;;;;5.63;3.00;;;24.50;61.80;;;;;;5030243;28;20109;-84
2022/08/01 06:20:08;;;;;;;5.70;2.85;;;24.50;61.60;;;;;;5029439;28;20021;-84
2022/08/01 06:22:36;;;;;;;5.97;2.72;;;24.50;61.80;;;;;;5013214;28;20477;-83
2022/08/01 06:25:03;;;;;;;4.37;2.80;;;24.50;61.80;;;;;;5010722;28;20559;-84
2022/08/01 06:27:28;;;;;;;4.78;2.60;;;24.50;61.80;;;;;;5029808;28;20521;-84
2022/08/01 06:29:54;;;;;;;5.07;3.33;;;24.50;61.80;;;;;;5028816;28;20128;-84
2022/08/01 06:32:24;;;;;;;4.90;2.95;;;24.50;61.50;;;;;;5029323;28;20144;-82
2022/08/01 06:34:50;;;;;;;;;;;24.50;62.10;;;;;;5029747;28;20083;-81
2022/08/01 06:37:16;;;;;;;5.85;2.97;;;24.50;61.80;;;;;;5030104;28;20375;-81
2022/08/01 06:39:41;;;;;;;5.50;2.65;;;24.50;62.20;;;;;;5028264;28;20034;-80
2022/08/01 06:42:09;;;;;;;5.00;2.90;;;24.50;62.30;;;;;;5031104;28;20116;-81
2022/08/01 06:44:35;;;;;;;10.80;2.92;;;24.60;62.30;;;;;;5030328;28;20017;-81
2022/08/01 06:47:01;;;;;;;4.30;2.70;;;24.50;62.40;;;;;;5012852;28;20030;-81
2022/08/01 06:49:26;;;;;;;7.93;2.78;;;24.50;62.50;;;;;;5029507;28;20359;-82
2022/08/01 06:51:52;;;;;;;9.30;2.90;;;24.50;62.10;;;;;;5029343;28;20371;-82
2022/08/01 06:54:18;;;;;;;10.77;3.10;;;24.50;62.40;;;;;;5030247;28;20029;-83
2022/08/01 06:56:44;;;;;;;6.00;2.70;;;24.50;62.50;;;;;;5030165;28;20037;-83
2022/08/01 06:59:09;;;;;;;5.47;2.70;;;24.50;62.60;;;;;;5029140;28;20026;-78
2022/08/01 07:01:35;;;;;;;9.18;2.50;;;24.50;62.90;;;;;;5026629;28;20017;-85
2022/08/01 07:04:02;;;;;;;10.68;3.25;;;24.50;63.30;;;;;;5017263;28;20028;-84
2022/08/01 07:06:28;;;;;;;7.97;2.75;;;24.60;63.50;;;;;;5034248;28;20478;-84
2022/08/01 07:08:54;;;;;;;4.45;2.55;;;24.50;63.80;;;;;;5034633;28;20084;-84
2022/08/01 07:11:21;;;;;;;11.25;3.03;;;24.50;65.00;;;;;;5033444;28;20095;-83
2022/08/01 07:13:47;;;;;;;6.32;2.85;;;24.60;65.50;;;;;;5016751;28;20037;-84
2022/08/01 07:16:13;;;;;;;6.93;3.35;;;24.60;65.80;;;;;;5033143;28;20024;-83
2022/08/01 07:18:40;;;;;;;33.13;6.13;;;24.60;67.10;;;;;;5034072;28;20037;-83
2022/08/01 07:21:05;;;;;;;26.85;4.28;;;24.70;73.10;;;;;;5033509;28;20032;-85
2022/08/01 07:23:31;;;;;;;11.50;3.45;;;24.60;70.00;;;;;;5033305;28;20029;-84
2022/08/01 07:25:57;;;;;;;19.52;4.32;;;24.70;70.20;;;;;;5003381;28;20117;-76
2022/08/01 07:28:23;;;;;;;14.00;3.35;;;24.70;69.70;;;;;;5034217;28;20033;-76
2022/08/01 07:30:49;;;;;;;22.58;11.38;;;24.50;69.70;;;;;;5032272;28;20037;-76
2022/08/01 07:33:15;;;;;;;9.35;3.40;;;24.40;69.00;;;;;;5032494;28;20371;-76
2022/08/01 07:35:40;;;;;;;12.82;6.72;;;24.40;69.00;;;;;;5031365;28;20040;-76
2022/08/01 07:38:07;;;;;;;8.77;4.72;;;24.40;69.10;;;;;;5036872;28;20036;-76
2022/08/01 07:40:33;;;;;;;6.85;3.50;;;24.30;68.20;;;;;;5035036;28;20021;-73
2022/08/01 07:42:59;;;;;;;7.07;3.25;;;24.40;68.50;;;;;;5054148;28;20056;-74
2022/08/01 07:45:26;;;;;;;9.02;3.72;;;24.40;68.50;;;;;;5039115;28;20048;-73
2022/08/01 07:47:52;;;;;;;9.48;3.83;;;24.40;67.80;;;;;;5036749;28;20140;-73
2022/08/01 07:50:18;;;;;;;9.05;4.03;;;24.40;67.30;;;;;;5032630;28;21363;-73
2022/08/01 07:52:44;;;;;;;6.72;3.83;;;24.50;67.50;;;;;;5046170;28;20032;-73
2022/08/01 07:55:11;;;;;;;7.78;3.97;;;24.50;66.90;;;;;;5053183;28;20028;-73
2022/08/01 07:57:37;;;;;;;7.53;3.47;;;24.60;66.80;;;;;;5049475;28;20025;-73
2022/08/01 08:00:06;;;;;;;6.40;3.58;;;24.60;67.10;;;;;;5033000;28;20048;-73
2022/08/01 08:02:31;;;;;;;6.47;3.55;;;24.60;66.50;;;;;;5046099;28;20034;-73
2022/08/01 08:04:57;;;;;;;11.05;3.42;;;24.60;66.30;;;;;;5033037;28;20017;-73
2022/08/01 08:07:23;;;;;;;9.07;4.55;;;24.60;67.60;;;;;;5032088;28;20378;-75
2022/08/01 08:09:49;;;;;;;7.15;4.30;;;24.50;66.60;;;;;;5033236;28;20485;-75
2022/08/01 08:12:15;;;;;;;20.77;13.82;;;24.50;66.10;;;;;;5032696;28;20083;-74
2022/08/01 08:14:40;;;;;;;20.90;13.98;;;24.40;66.20;;;;;;5029040;28;20508;-73
2022/08/01 08:17:07;;;;;;;21.70;11.48;;;24.40;66.80;;;;;;5032449;28;20032;-74
2022/08/01 08:19:33;;;;;;;19.00;10.30;;;24.30;66.90;;;;;;5028314;28;20064;-74
2022/08/01 08:22:01;;;;;;;15.68;8.57;;;24.40;66.30;;;;;;5013560;28;20498;-74
2022/08/01 08:24:27;;;;;;;12.00;6.85;;;24.40;66.20;;;;;;5031129;28;20021;-74
2022/08/01 08:26:56;;;;;;;13.27;7.47;;;24.40;67.60;;;;;;5031601;28;20064;-74
2022/08/01 08:29:22;;;;;;;10.98;6.63;;;24.40;68.00;;;;;;5036825;28;20056;-73
2022/08/01 08:31:48;;;;;;;13.57;8.13;;;24.40;67.20;;;;;;5031039;28;20025;-72
2022/08/01 08:34:15;;;;;;;11.80;6.97;;;24.40;69.10;;;;;;5031573;28;20027;-74
2022/08/01 08:36:40;;;;;;;13.73;7.70;;;24.40;66.10;;;;;;5031366;28;20025;-72
2022/08/01 08:39:06;;;;;;;9.25;5.20;;;24.50;67.40;;;;;;5031923;28;20075;-73
2022/08/01 08:41:34;;;;;;;8.45;5.22;;;24.50;65.80;;;;;;5031566;28;20092;-72
2022/08/01 08:44:04;;;;;;;9.88;5.63;;;24.40;65.40;;;;;;5033810;28;20021;-72
2022/08/01 08:46:34;;;;;;;12.02;6.70;;;24.50;65.40;;;;;;5031126;28;20024;-72
2022/08/01 08:49:03;;;;;;;14.57;7.72;;;24.50;65.20;;;;;;5031536;28;20029;-72
2022/08/01 08:51:30;;;;;;;13.87;7.63;;;24.50;64.80;;;;;;5035546;28;20037;-74
2022/08/01 08:53:58;;;;;;;15.75;9.13;;;24.50;64.50;;;;;;5032475;28;20030;-74
2022/08/01 08:56:24;;;;;;;14.00;7.95;;;24.50;64.40;;;;;;5032167;28;20036;-75
2022/08/01 08:58:51;;;;;;;12.65;7.57;;;24.50;64.40;;;;;;5028903;28;20029;-74
2022/08/01 09:01:17;;;;;;;22.27;6.68;;;24.50;64.20;;;;;;5030767;28;20022;-74
2022/08/01 09:03:44;;;;;;;11.70;5.03;;;24.50;64.50;;;;;;5036636;28;20053;-74
2022/08/01 09:06:11;;;;;;;10.00;5.13;;;24.60;64.70;;;;;;5029463;28;20474;-75
2022/08/01 09:08:37;;;;;;;16.02;4.40;;;24.60;64.40;;;;;;5026949;28;20469;-74
2022/08/01 09:11:03;;;;;;;11.10;4.18;;;24.60;64.30;;;;;;5038272;28;20047;-74
2022/08/01 09:13:38;;;;;;;5.53;3.47;;;24.50;64.30;;;;;;5029991;28;20131;-74
2022/08/01 09:16:05;;;;;;;4.55;2.15;;;24.50;64.20;;;;;;5028979;28;20025;-74
2022/08/01 09:18:40;;;;;;;5.57;2.50;;;24.10;63.50;;;;;;5031748;28;20515;-74
2022/08/01 09:21:05;;;;;;;2.97;1.85;;;24.00;64.40;;;;;;5033306;28;20041;-74
2022/08/01 09:23:38;;;;;;;5.60;1.95;;;24.10;64.20;;;;;;5034849;28;20413;-75
2022/08/01 09:26:05;;;;;;;3.67;1.90;;;24.00;64.20;;;;;;5029474;28;20040;-75
2022/08/01 09:28:31;;;;;;;4.35;2.15;;;23.80;64.50;;;;;;5035404;28;20504;-75
2022/08/01 09:30:57;;;;;;;5.00;2.50;;;24.00;65.10;;;;;;5029542;28;20021;-75
2022/08/01 09:33:23;;;;;;;7.97;2.47;;;24.10;64.40;;;;;;5029005;28;20025;-74
2022/08/01 09:35:57;;;;;;;6.18;2.40;;;24.20;64.30;;;;;;5029535;28;20378;-75
2022/08/01 09:39:10;;;;;;;11.82;2.70;;;24.30;64.30;;;;;;5029899;28;20033;-74
2022/08/01 09:41:36;;;;;;;20.30;2.50;;;24.30;63.80;;;;;;5026284;28;20471;-74
2022/08/01 09:44:02;;;;;;;5.38;2.60;;;24.30;63.90;;;;;;5032003;28;20028;-74
2022/08/01 09:46:28;;;;;;;6.25;2.25;;;24.30;63.30;;;;;;5031802;28;20512;-75
2022/08/01 09:49:04;;;;;;;7.13;2.13;;;24.20;63.50;;;;;;5028969;28;20057;-74
2022/08/01 09:51:38;;;;;;;3.65;1.90;;;24.20;64.00;;;;;;5027997;28;20052;-75
2022/08/01 09:54:06;;;;;;;6.57;2.17;;;24.20;63.90;;;;;;5028517;28;20493;-74
2022/08/01 09:56:42;;;;;;;3.88;2.05;;;24.30;63.70;;;;;;5023943;28;20061;-74
2022/08/01 09:59:08;;;;;;;7.13;2.42;;;24.30;63.70;;;;;;5029829;28;20053;-75
2022/08/01 10:01:49;;;;;;;3.05;1.75;;;24.30;63.70;;;;;;5029808;28;20053;-74
2022/08/01 10:04:21;;;;;;;5.25;1.80;;;24.30;63.80;;;;;;5028317;28;20056;-75
2022/08/01 10:06:52;;;;;;;4.28;2.00;;;24.30;63.40;;;;;;5028044;28;20029;-75
2022/08/01 10:09:33;;;;;;;4.25;2.03;;;24.30;63.80;;;;;;5024723;28;20021;-75
2022/08/01 10:12:00;;;;;;;6.60;1.88;;;24.30;63.30;;;;;;5028194;28;20124;-75
2022/08/01 10:14:28;;;;;;;2.33;1.48;;;24.30;63.40;;;;;;5012019;28;20113;-76
2022/08/01 10:17:01;;;;;;;8.10;2.15;;;24.40;63.70;;;;;;5027993;28;20505;-75
2022/08/01 10:19:28;;;;;;;4.15;2.13;;;24.40;63.30;;;;;;5028622;28;20033;-75
2022/08/01 10:21:55;;;;;;;4.53;1.90;;;24.40;63.20;;;;;;5025763;28;20026;-75
2022/08/01 10:24:22;;;;;;;6.80;2.50;;;24.40;63.20;;;;;;5029964;28;20033;-76
2022/08/01 10:26:51;;;;;;;12.00;2.08;;;24.50;63.70;;;;;;5027819;28;20500;-75
2022/08/01 10:29:20;;;;;;;6.35;1.90;;;24.50;63.40;;;;;;5029069;28;20029;-76
2022/08/01 10:31:46;;;;;;;3.13;1.92;;;24.50;63.90;;;;;;5029631;28;20091;-76
2022/08/01 10:34:18;;;;;;;4.85;1.92;;;24.50;63.10;;;;;;5029521;28;20036;-76
2022/08/01 10:36:47;;;;;;;10.43;2.40;;;24.50;63.10;;;;;;5029788;28;20401;-75
2022/08/01 10:39:13;;;;;;;10.70;2.00;;;24.50;64.00;;;;;;5032328;28;20120;-75
2022/08/01 10:41:40;;;;;;;5.38;1.70;;;24.50;63.40;;;;;;5033205;28;20524;-76
2022/08/01 10:44:10;;;;;;;8.23;2.47;;;24.50;63.70;;;;;;5032107;28;20474;-74
2022/08/01 10:46:39;;;;;;;21.63;11.32;;;24.40;63.60;;;;;;5032457;28;20478;-75
2022/08/01 10:49:10;;;;;;;11.38;6.38;;;24.40;63.60;;;;;;5033057;28;20410;-75
2022/08/01 10:51:38;;;;;;;16.00;8.07;;;24.40;63.70;;;;;;5033173;28;20029;-75
2022/08/01 10:54:10;;;;;;;11.25;5.72;;;24.40;63.60;;;;;;5032877;28;20040;-74
2022/08/01 10:56:56;;;;;;;11.98;5.72;;;24.40;63.70;;;;;;5032580;28;20061;-75
2022/08/01 10:59:25;;;;;;;9.57;4.80;;;24.40;63.60;;;;;;5015480;28;20518;-75
2022/08/01 11:02:01;;;;;;;;;;;24.40;63.70;;;;;;5033351;28;20052;-75
2022/08/01 11:04:52;;;;;;;11.35;5.75;;;24.40;64.50;;;;;;5032453;28;19959;-76
2022/08/01 11:07:34;;;;;;;8.43;4.90;;;24.40;63.60;;;;;;5050597;22;20481;-76
2022/08/01 11:10:22;;;;;;;10.55;4.72;;;24.40;64.00;;;;;;5049830;28;20036;-75
2022/08/01 11:12:48;;;;;;;10.85;5.20;;;24.40;63.80;;;;;;5052559;28;20656;-75
2022/08/01 11:15:14;;;;;;;10.55;5.18;;;24.40;63.70;;;;;;5051284;28;20025;-75
2022/08/01 11:17:47;;;;;;;7.35;3.78;;;24.40;63.70;;;;;;5050792;28;20028;-75
2022/08/01 11:20:15;;;;;;;11.15;4.60;;;24.40;63.70;;;;;;5049338;28;20025;-75
2022/08/01 11:23:05;;;;;;;7.95;3.60;;;24.40;63.50;;;;;;5051650;28;20029;-75
2022/08/01 11:25:33;;;;;;;5.25;2.47;;;24.30;63.40;;;;;;5031113;28;20056;-76
2022/08/01 11:28:17;;;;;;;5.25;2.83;;;24.40;63.30;;;;;;5051484;28;20025;-76
2022/08/01 11:30:48;;;;;;;6.03;2.67;;;24.40;63.50;;;;;;5052151;28;20048;-76
2022/08/01 11:33:16;;;;;;;4.88;2.47;;;24.40;63.30;;;;;;5052679;28;20390;-76
2022/08/01 11:36:11;;;;;;;4.50;2.72;;;24.40;63.20;;;;;;5051119;28;20028;-75
2022/08/01 11:39:12;;;;;;;5.47;2.60;;;24.40;63.30;;;;;;5034572;28;20033;-76
2022/08/01 11:41:38;;;;;;;4.30;2.28;;;24.40;63.40;;;;;;5052555;28;20029;-75
2022/08/01 11:44:16;;;;;;;4.10;2.00;;;24.40;63.50;;;;;;5051247;28;20108;-75
2022/08/01 11:47:03;;;;;;;4.68;2.25;;;24.40;63.60;;;;;;5050564;28;20265;-75
2022/08/01 11:49:47;;;;;;;3.97;2.20;;;24.40;63.60;;;;;;5051943;28;20091;-76
2022/08/01 11:52:15;;;;;;;3.42;2.05;;;24.40;64.00;;;;;;5034401;28;20124;-75
2022/08/01 11:54:50;;;;;;;4.40;2.10;;;24.40;63.90;;;;;;5046866;28;20537;-76
2022/08/01 11:57:25;;;;;;;5.05;1.85;;;24.40;63.50;;;;;;5050778;28;20032;-75
2022/08/01 11:59:57;;;;;;;4.43;2.13;;;24.40;63.40;;;;;;5051916;28;20029;-76
2022/08/01 12:02:26;;;;;;;3.97;1.63;;;24.50;63.50;;;;;;5051820;28;20386;-76
2022/08/01 12:04:54;;;;;;;;;;;24.40;63.50;;;;;;5051346;28;20496;-76
2022/08/01 12:07:21;;;;;;;4.18;1.75;;;24.40;63.40;;;;;;5050292;28;19958;-76
2022/08/01 12:09:48;;;;;;;5.63;1.73;;;24.50;63.40;;;;;;5051785;28;20029;-76
2022/08/01 12:12:17;;;;;;;3.58;1.55;;;24.40;63.30;;;;;;5034608;28;20421;-77
2022/08/01 12:14:44;;;;;;;;;;;24.50;63.40;;;;;;5034211;28;20033;-76
2022/08/01 12:17:10;;;;;;;2.17;1.45;;;24.50;63.20;;;;;;5046989;28;19912;-76
2022/08/01 12:19:36;;;;;;;5.80;1.85;;;24.50;63.20;;;;;;5050510;28;20485;-78
2022/08/01 12:22:11;;;;;;;7.55;2.03;;;24.50;63.20;;;;;;5052089;28;20025;-77
2022/08/01 12:24:39;;;;;;;2.72;1.58;;;24.50;63.30;;;;;;5050371;28;20033;-77
2022/08/01 12:27:06;;;;;;;5.45;2.03;;;24.50;63.20;;;;;;5050275;28;20028;-83
2022/08/01 12:29:36;;;;;;;4.43;2.20;;;24.50;63.60;;;;;;5050861;28;20039;-83
2022/08/01 12:32:02;;;;;;;2.88;1.85;;;24.50;63.50;;;;;;5016853;28;20425;-83
2022/08/01 12:34:28;;;;;;;7.90;2.13;;;24.50;63.30;;;;;;5034159;28;20032;-83
2022/08/01 12:36:56;;;;;;;2.92;1.48;;;24.50;63.10;;;;;;5033622;28;20037;-83
2022/08/01 12:39:28;;;;;;;7.82;2.40;;;24.50;63.10;;;;;;5017025;28;20055;-83
2022/08/01 12:41:54;;;;;;;6.68;2.60;;;24.50;63.20;;;;;;5051459;28;20496;-82
2022/08/01 12:44:20;;;;;;;7.03;2.03;;;24.60;63.80;;;;;;5051337;28;20025;-85
2022/08/01 12:46:48;;;;;;;4.95;2.00;;;24.60;63.20;;;;;;5033310;28;20115;-82
2022/08/01 12:49:14;;;;;;;5.30;2.00;;;24.60;63.10;;;;;;5033742;28;20028;-83
2022/08/01 12:51:41;;;;;;;5.38;1.92;;;24.60;63.10;;;;;;5033476;28;20025;-83
2022/08/01 12:54:09;;;;;;;7.28;1.98;;;24.60;63.20;;;;;;5051804;28;20060;-83